Austhavet — LG8436 — position and weather

sailwx.info

Track history (hours):
 
Tides and Currents Weather Stations Pressure Air Temp Water Temp Dewpoint Dewpoint Depression Visibility Wind Speed Wind Dir Waves Ship Positions

Austhavet

Last reported at 2017-Nov-16 09:05 UTC. Time now 2017-Dec-15 15:54 UTC.
Position N 71°09' E 028°17'.
Warning: this ship's position is 29 days out of date.

Length 11 m.

Type: Fishing. MMSI: 257655600.

Date/timePositionNaut miles runAvg speedWind from/ knotsBaromVisibWave heightAir tempDewpointWater temp
2017-Nov-16 09:05N 71°09' E 028°17'1 8.0
2017-Nov-16 08:59N 71°08' E 028°17'4 8.0
2017-Nov-16 08:30N 71°04' E 028°19'1 2.4
2017-Nov-16 08:00N 71°04' E 028°16'0 0.0
2017-Nov-16 07:30N 71°04' E 028°16'0 0.0
2017-Nov-16 07:00N 71°04' E 028°16'0 0.0
2017-Nov-16 06:30N 71°04' E 028°16'0 0.0
2017-Nov-16 06:00N 71°04' E 028°16'0 0.0
2017-Nov-16 05:30N 71°04' E 028°16'0 0.0
2017-Nov-16 05:00N 71°04' E 028°16'0 0.0
2017-Nov-16 04:30N 71°04' E 028°16'0 0.1
2017-Nov-16 03:59N 71°04' E 028°16'1 1.6
2017-Nov-16 03:30N 71°03' E 028°18'4 7.5
2017-Nov-16 03:00N 71°07' E 028°18'4 7.8
2017-Nov-16 02:29N 71°11' E 028°16'4 7.4
2017-Nov-16 01:59N 71°15' E 028°15'4 7.6
2017-Nov-16 01:30N 71°18' E 028°13'4 7.9
2017-Nov-16 01:00N 71°22' E 028°12'4 7.7
2017-Nov-16 00:30N 71°26' E 028°10'5 1.4
2017-Nov-15 21:03N 71°21' E 028°12'1 7.8
2017-Nov-15 20:59N 71°21' E 028°12'4 7.6
2017-Nov-15 20:30N 71°17' E 028°14'4 7.5
2017-Nov-15 20:00N 71°14' E 028°15'4 7.9
2017-Nov-15 19:30N 71°10' E 028°17'4 8.0
2017-Nov-15 19:00N 71°06' E 028°18'2 4.0
2017-Nov-15 18:28N 71°04' E 028°16'0 0.0
2017-Nov-15 17:58N 71°04' E 028°16'0 0.1
2017-Nov-15 17:29N 71°04' E 028°16'0 0.0
2017-Nov-15 16:59N 71°04' E 028°16'0 0.0
2017-Nov-15 16:29N 71°04' E 028°16'0 0.0
2017-Nov-15 15:59N 71°04' E 028°16'1 2.0
2017-Nov-15 15:30N 71°04' E 028°19'3 7.0
2017-Nov-15 15:00N 71°07' E 028°17'4 7.2
2017-Nov-15 14:30N 71°11' E 028°16'3 6.9
2017-Nov-15 14:00N 71°14' E 028°15'3 6.8
2017-Nov-15 13:30N 71°18' E 028°13'3 6.8
2017-Nov-15 13:00N 71°21' E 028°12'  
2017-Nov-13 01:59N 71°04' E 028°16'0 0.0
2017-Nov-13 01:29N 71°04' E 028°16'0 0.0
2017-Nov-13 00:59N 71°04' E 028°16'0 0.0
2017-Nov-13 00:29N 71°04' E 028°16'0 0.0
2017-Nov-12 23:59N 71°04' E 028°16'0 0.0
2017-Nov-12 23:29N 71°04' E 028°16'0 0.0
2017-Nov-12 22:59N 71°04' E 028°16'0 0.0
2017-Nov-12 22:29N 71°04' E 028°16'0 0.1
2017-Nov-12 21:55N 71°04' E 028°16'0 0.0
2017-Nov-12 21:25N 71°04' E 028°16'0 0.0
2017-Nov-12 20:55N 71°04' E 028°16'1 2.6
2017-Nov-12 20:30N 71°04' E 028°19'3 7.0
2017-Nov-12 20:00N 71°08' E 028°19'3 7.0
2017-Nov-12 19:30N 71°11' E 028°19'3 6.5
2017-Nov-12 19:00N 71°14' E 028°19'3 5.2
2017-Nov-12 18:30N 71°17' E 028°19'3 4.9
2017-Nov-12 17:59N 71°20' E 028°18'2 4.4
2017-Nov-12 17:28N 71°22' E 028°18'4 5.4
2017-Nov-12 16:46N 71°26' E 028°18'3 0.1
2017-Nov-10 18:30N 71°22' E 028°17'4 7.6
2017-Nov-10 18:00N 71°19' E 028°18'4 7.6
2017-Nov-10 17:30N 71°15' E 028°18'4 7.5
2017-Nov-10 16:59N 71°11' E 028°18'4 7.7
2017-Nov-10 16:29N 71°07' E 028°19'4 7.6
2017-Nov-10 16:00N 71°03' E 028°18'1 1.7
2017-Nov-10 15:30N 71°04' E 028°16'0 0.1
2017-Nov-10 14:59N 71°04' E 028°16'0 0.0
2017-Nov-10 14:29N 71°04' E 028°16'0 0.2
2017-Nov-10 13:59N 71°04' E 028°16'0 0.0
2017-Nov-10 13:29N 71°04' E 028°16'0 0.0
2017-Nov-10 12:59N 71°04' E 028°16'0 0.0
2017-Nov-10 12:29N 71°04' E 028°16'0 0.0
2017-Nov-10 11:59N 71°04' E 028°16'0 0.0
2017-Nov-10 11:29N 71°04' E 028°16'0 0.0
2017-Nov-10 10:59N 71°04' E 028°16'0 0.0
2017-Nov-10 10:29N 71°04' E 028°16'0 0.0
2017-Nov-10 09:59N 71°04' E 028°16'0 0.0
2017-Nov-10 09:29N 71°04' E 028°16'0 0.0
2017-Nov-10 08:59N 71°04' E 028°16'0 0.0
2017-Nov-10 08:29N 71°04' E 028°16'0 0.0
2017-Nov-10 07:59N 71°04' E 028°16'0 0.0
2017-Nov-10 07:29N 71°04' E 028°16'0 0.0
2017-Nov-10 06:59N 71°04' E 028°16'0 0.0
2017-Nov-10 06:29N 71°04' E 028°16'0 0.0
2017-Nov-10 05:59N 71°04' E 028°16'0 0.0
2017-Nov-10 05:29N 71°04' E 028°16'0 0.0
2017-Nov-10 04:59N 71°04' E 028°16'0 0.0
2017-Nov-10 04:29N 71°04' E 028°16'0 0.0
2017-Nov-10 03:59N 71°04' E 028°16'0 0.0
2017-Nov-10 03:26N 71°04' E 028°16'0 0.0
2017-Nov-10 02:59N 71°04' E 028°16'0 0.0
2017-Nov-10 02:29N 71°04' E 028°16'0 0.0
2017-Nov-10 01:59N 71°04' E 028°16'0 0.0
2017-Nov-10 01:29N 71°04' E 028°16'0 0.0
2017-Nov-10 00:59N 71°04' E 028°16'0 0.0
2017-Nov-10 00:29N 71°04' E 028°16'0 0.0
2017-Nov-09 23:59N 71°04' E 028°16'0 0.0
2017-Nov-09 23:30N 71°04' E 028°16'0 0.1
2017-Nov-09 22:58N 71°04' E 028°16'0 0.0
2017-Nov-09 22:28N 71°04' E 028°16'1 2.3
2017-Nov-09 22:00N 71°04' E 028°19'3 5.9
2017-Nov-09 21:30N 71°07' E 028°19'3 6.1
2017-Nov-09 21:00N 71°10' E 028°18'3 6.3
2017-Nov-09 20:30N 71°13' E 028°18'3 6.2
2017-Nov-09 20:00N 71°16' E 028°18'3 6.0
2017-Nov-09 19:30N 71°19' E 028°18'4 0.1
2017-Nov-07 20:39N 71°23' E 028°20'2 9.3
2017-Nov-07 20:26N 71°21' E 028°19'4 9.1
2017-Nov-07 20:00N 71°17' E 028°19'5 9.4
2017-Nov-07 19:31N 71°13' E 028°19'4 7.9
2017-Nov-07 18:59N 71°08' E 028°18'4 7.9
2017-Nov-07 18:30N 71°05' E 028°19'1 2.7
2017-Nov-07 18:00N 71°04' E 028°16'0 0.1
2017-Nov-07 17:29N 71°04' E 028°16'0 0.0
2017-Nov-07 16:59N 71°04' E 028°16'0 0.0
2017-Nov-07 16:29N 71°04' E 028°16'0 0.0
2017-Nov-07 15:59N 71°04' E 028°16'0 0.0
2017-Nov-07 15:29N 71°04' E 028°16'0 0.0
2017-Nov-07 14:59N 71°04' E 028°16'0 0.0
2017-Nov-07 14:29N 71°04' E 028°16'0 0.0
2017-Nov-07 13:59N 71°04' E 028°16'0 0.0
2017-Nov-07 13:29N 71°04' E 028°16'0 0.0
2017-Nov-07 12:59N 71°04' E 028°16'0 0.0
2017-Nov-07 12:29N 71°04' E 028°16'0 0.0
2017-Nov-07 11:59N 71°04' E 028°16'0 0.0
2017-Nov-07 11:29N 71°04' E 028°16'0 0.0
2017-Nov-07 10:59N 71°04' E 028°16'0 0.0
2017-Nov-07 10:29N 71°04' E 028°16'0 0.0
2017-Nov-07 09:59N 71°04' E 028°16'0 0.0
2017-Nov-07 09:29N 71°04' E 028°16'0 0.0
2017-Nov-07 08:59N 71°04' E 028°16'0 0.0
2017-Nov-07 08:29N 71°04' E 028°16'0 0.0
2017-Nov-07 07:59N 71°04' E 028°16'0 0.0
2017-Nov-07 07:29N 71°04' E 028°16'0 0.0
2017-Nov-07 06:59N 71°04' E 028°16'0 0.0
2017-Nov-07 06:29N 71°04' E 028°16'0 0.0
2017-Nov-07 05:59N 71°04' E 028°16'0 0.0
2017-Nov-07 05:29N 71°04' E 028°16'0 0.0
2017-Nov-07 04:59N 71°04' E 028°16'0 0.0
2017-Nov-07 04:29N 71°04' E 028°16'0 0.0
2017-Nov-07 03:59N 71°04' E 028°16'0 0.0
2017-Nov-07 03:29N 71°04' E 028°16'0 0.0
2017-Nov-07 02:59N 71°04' E 028°16'0 0.0
2017-Nov-07 02:29N 71°04' E 028°16'0 0.0
2017-Nov-07 01:59N 71°04' E 028°16'0 0.0
2017-Nov-07 01:29N 71°04' E 028°16'0 0.0
2017-Nov-07 00:59N 71°04' E 028°16'0 0.0
2017-Nov-07 00:29N 71°04' E 028°16'0 0.0
2017-Nov-06 23:59N 71°04' E 028°16'0 0.0
2017-Nov-06 23:29N 71°04' E 028°16'0 0.0
2017-Nov-06 22:59N 71°04' E 028°16'0 0.0
2017-Nov-06 22:29N 71°04' E 028°16'0 0.0
2017-Nov-06 21:59N 71°04' E 028°16'0 0.0
2017-Nov-06 21:29N 71°04' E 028°16'0 0.0
2017-Nov-06 20:59N 71°04' E 028°16'0 0.0
2017-Nov-06 20:29N 71°04' E 028°16'  
Track history (hours):
 
Tides and Currents Weather Stations Pressure Air Temp Water Temp Dewpoint Dewpoint Depression Visibility Wind Speed Wind Dir Waves Ship Positions

Austhavet

Last reported at 2017-Nov-16 09:05 UTC. Time now 2017-Dec-15 15:54 UTC.
Position N 71°09' E 028°17'.
Warning: this ship's position is 29 days out of date.

Length 11 m.

Type: Fishing. MMSI: 257655600.

Date/timePositionNaut miles runAvg speedWind from/ knotsBaromVisibWave heightAir tempDewpointWater temp
2017-Nov-16 09:05N 71°09' E 028°17'1 8.0
2017-Nov-16 08:59N 71°08' E 028°17'4 8.0
2017-Nov-16 08:30N 71°04' E 028°19'1 2.4
2017-Nov-16 08:00N 71°04' E 028°16'0 0.0
2017-Nov-16 07:30N 71°04' E 028°16'0 0.0
2017-Nov-16 07:00N 71°04' E 028°16'0 0.0
2017-Nov-16 06:30N 71°04' E 028°16'0 0.0
2017-Nov-16 06:00N 71°04' E 028°16'0 0.0
2017-Nov-16 05:30N 71°04' E 028°16'0 0.0
2017-Nov-16 05:00N 71°04' E 028°16'0 0.0
2017-Nov-16 04:30N 71°04' E 028°16'0 0.1
2017-Nov-16 03:59N 71°04' E 028°16'1 1.6
2017-Nov-16 03:30N 71°03' E 028°18'4 7.5
2017-Nov-16 03:00N 71°07' E 028°18'4 7.8
2017-Nov-16 02:29N 71°11' E 028°16'4 7.4
2017-Nov-16 01:59N 71°15' E 028°15'4 7.6
2017-Nov-16 01:30N 71°18' E 028°13'4 7.9
2017-Nov-16 01:00N 71°22' E 028°12'4 7.7
2017-Nov-16 00:30N 71°26' E 028°10'5 1.4
2017-Nov-15 21:03N 71°21' E 028°12'1 7.8
2017-Nov-15 20:59N 71°21' E 028°12'4 7.6
2017-Nov-15 20:30N 71°17' E 028°14'4 7.5
2017-Nov-15 20:00N 71°14' E 028°15'4 7.9
2017-Nov-15 19:30N 71°10' E 028°17'4 8.0
2017-Nov-15 19:00N 71°06' E 028°18'2 4.0
2017-Nov-15 18:28N 71°04' E 028°16'0 0.0
2017-Nov-15 17:58N 71°04' E 028°16'0 0.1
2017-Nov-15 17:29N 71°04' E 028°16'0 0.0
2017-Nov-15 16:59N 71°04' E 028°16'0 0.0
2017-Nov-15 16:29N 71°04' E 028°16'0 0.0
2017-Nov-15 15:59N 71°04' E 028°16'1 2.0
2017-Nov-15 15:30N 71°04' E 028°19'3 7.0
2017-Nov-15 15:00N 71°07' E 028°17'4 7.2
2017-Nov-15 14:30N 71°11' E 028°16'3 6.9
2017-Nov-15 14:00N 71°14' E 028°15'3 6.8
2017-Nov-15 13:30N 71°18' E 028°13'3 6.8
2017-Nov-15 13:00N 71°21' E 028°12'  
2017-Nov-13 01:59N 71°04' E 028°16'0 0.0
2017-Nov-13 01:29N 71°04' E 028°16'0 0.0
2017-Nov-13 00:59N 71°04' E 028°16'0 0.0
2017-Nov-13 00:29N 71°04' E 028°16'0 0.0
2017-Nov-12 23:59N 71°04' E 028°16'0 0.0
2017-Nov-12 23:29N 71°04' E 028°16'0 0.0
2017-Nov-12 22:59N 71°04' E 028°16'0 0.0
2017-Nov-12 22:29N 71°04' E 028°16'0 0.1
2017-Nov-12 21:55N 71°04' E 028°16'0 0.0
2017-Nov-12 21:25N 71°04' E 028°16'0 0.0
2017-Nov-12 20:55N 71°04' E 028°16'1 2.6
2017-Nov-12 20:30N 71°04' E 028°19'3 7.0
2017-Nov-12 20:00N 71°08' E 028°19'3 7.0
2017-Nov-12 19:30N 71°11' E 028°19'3 6.5
2017-Nov-12 19:00N 71°14' E 028°19'3 5.2
2017-Nov-12 18:30N 71°17' E 028°19'3 4.9
2017-Nov-12 17:59N 71°20' E 028°18'2 4.4
2017-Nov-12 17:28N 71°22' E 028°18'4 5.4
2017-Nov-12 16:46N 71°26' E 028°18'3 0.1
2017-Nov-10 18:30N 71°22' E 028°17'4 7.6
2017-Nov-10 18:00N 71°19' E 028°18'4 7.6
2017-Nov-10 17:30N 71°15' E 028°18'4 7.5
2017-Nov-10 16:59N 71°11' E 028°18'4 7.7
2017-Nov-10 16:29N 71°07' E 028°19'4 7.6
2017-Nov-10 16:00N 71°03' E 028°18'1 1.7
2017-Nov-10 15:30N 71°04' E 028°16'0 0.1
2017-Nov-10 14:59N 71°04' E 028°16'0 0.0
2017-Nov-10 14:29N 71°04' E 028°16'0 0.2
2017-Nov-10 13:59N 71°04' E 028°16'0 0.0
2017-Nov-10 13:29N 71°04' E 028°16'0 0.0
2017-Nov-10 12:59N 71°04' E 028°16'0 0.0
2017-Nov-10 12:29N 71°04' E 028°16'0 0.0
2017-Nov-10 11:59N 71°04' E 028°16'0 0.0
2017-Nov-10 11:29N 71°04' E 028°16'0 0.0
2017-Nov-10 10:59N 71°04' E 028°16'0 0.0
2017-Nov-10 10:29N 71°04' E 028°16'0 0.0
2017-Nov-10 09:59N 71°04' E 028°16'0 0.0
2017-Nov-10 09:29N 71°04' E 028°16'0 0.0
2017-Nov-10 08:59N 71°04' E 028°16'0 0.0
2017-Nov-10 08:29N 71°04' E 028°16'0 0.0
2017-Nov-10 07:59N 71°04' E 028°16'0 0.0
2017-Nov-10 07:29N 71°04' E 028°16'0 0.0
2017-Nov-10 06:59N 71°04' E 028°16'0 0.0
2017-Nov-10 06:29N 71°04' E 028°16'0 0.0
2017-Nov-10 05:59N 71°04' E 028°16'0 0.0
2017-Nov-10 05:29N 71°04' E 028°16'0 0.0
2017-Nov-10 04:59N 71°04' E 028°16'0 0.0
2017-Nov-10 04:29N 71°04' E 028°16'0 0.0
2017-Nov-10 03:59N 71°04' E 028°16'0 0.0
2017-Nov-10 03:26N 71°04' E 028°16'0 0.0
2017-Nov-10 02:59N 71°04' E 028°16'0 0.0
2017-Nov-10 02:29N 71°04' E 028°16'0 0.0
2017-Nov-10 01:59N 71°04' E 028°16'0 0.0
2017-Nov-10 01:29N 71°04' E 028°16'0 0.0
2017-Nov-10 00:59N 71°04' E 028°16'0 0.0
2017-Nov-10 00:29N 71°04' E 028°16'0 0.0
2017-Nov-09 23:59N 71°04' E 028°16'0 0.0
2017-Nov-09 23:30N 71°04' E 028°16'0 0.1
2017-Nov-09 22:58N 71°04' E 028°16'0 0.0
2017-Nov-09 22:28N 71°04' E 028°16'1 2.3
2017-Nov-09 22:00N 71°04' E 028°19'3 5.9
2017-Nov-09 21:30N 71°07' E 028°19'3 6.1
2017-Nov-09 21:00N 71°10' E 028°18'3 6.3
2017-Nov-09 20:30N 71°13' E 028°18'3 6.2
2017-Nov-09 20:00N 71°16' E 028°18'3 6.0
2017-Nov-09 19:30N 71°19' E 028°18'4 0.1
2017-Nov-07 20:39N 71°23' E 028°20'2 9.3
2017-Nov-07 20:26N 71°21' E 028°19'4 9.1
2017-Nov-07 20:00N 71°17' E 028°19'5 9.4
2017-Nov-07 19:31N 71°13' E 028°19'4 7.9
2017-Nov-07 18:59N 71°08' E 028°18'4 7.9
2017-Nov-07 18:30N 71°05' E 028°19'1 2.7
2017-Nov-07 18:00N 71°04' E 028°16'0 0.1
2017-Nov-07 17:29N 71°04' E 028°16'0 0.0
2017-Nov-07 16:59N 71°04' E 028°16'0 0.0
2017-Nov-07 16:29N 71°04' E 028°16'0 0.0
2017-Nov-07 15:59N 71°04' E 028°16'0 0.0
2017-Nov-07 15:29N 71°04' E 028°16'0 0.0
2017-Nov-07 14:59N 71°04' E 028°16'0 0.0
2017-Nov-07 14:29N 71°04' E 028°16'0 0.0
2017-Nov-07 13:59N 71°04' E 028°16'0 0.0
2017-Nov-07 13:29N 71°04' E 028°16'0 0.0
2017-Nov-07 12:59N 71°04' E 028°16'0 0.0
2017-Nov-07 12:29N 71°04' E 028°16'0 0.0
2017-Nov-07 11:59N 71°04' E 028°16'0 0.0
2017-Nov-07 11:29N 71°04' E 028°16'0 0.0
2017-Nov-07 10:59N 71°04' E 028°16'0 0.0
2017-Nov-07 10:29N 71°04' E 028°16'0 0.0
2017-Nov-07 09:59N 71°04' E 028°16'0 0.0
2017-Nov-07 09:29N 71°04' E 028°16'0 0.0
2017-Nov-07 08:59N 71°04' E 028°16'0 0.0
2017-Nov-07 08:29N 71°04' E 028°16'0 0.0
2017-Nov-07 07:59N 71°04' E 028°16'0 0.0
2017-Nov-07 07:29N 71°04' E 028°16'0 0.0
2017-Nov-07 06:59N 71°04' E 028°16'0 0.0
2017-Nov-07 06:29N 71°04' E 028°16'0 0.0
2017-Nov-07 05:59N 71°04' E 028°16'0 0.0
2017-Nov-07 05:29N 71°04' E 028°16'0 0.0
2017-Nov-07 04:59N 71°04' E 028°16'0 0.0
2017-Nov-07 04:29N 71°04' E 028°16'0 0.0
2017-Nov-07 03:59N 71°04' E 028°16'0 0.0
2017-Nov-07 03:29N 71°04' E 028°16'0 0.0
2017-Nov-07 02:59N 71°04' E 028°16'0 0.0
2017-Nov-07 02:29N 71°04' E 028°16'0 0.0
2017-Nov-07 01:59N 71°04' E 028°16'0 0.0
2017-Nov-07 01:29N 71°04' E 028°16'0 0.0
2017-Nov-07 00:59N 71°04' E 028°16'0 0.0
2017-Nov-07 00:29N 71°04' E 028°16'0 0.0
2017-Nov-06 23:59N 71°04' E 028°16'0 0.0
2017-Nov-06 23:29N 71°04' E 028°16'0 0.0
2017-Nov-06 22:59N 71°04' E 028°16'0 0.0
2017-Nov-06 22:29N 71°04' E 028°16'0 0.0
2017-Nov-06 21:59N 71°04' E 028°16'0 0.0
2017-Nov-06 21:29N 71°04' E 028°16'0 0.0
2017-Nov-06 20:59N 71°04' E 028°16'0 0.0
2017-Nov-06 20:29N 71°04' E 028°16'  

Dump ship's entire track history